sensor_id;sensor_type;location;lat;lon;timestamp;temperature;humidity
68387;DHT22;55338;43.062;25.624;2022-09-01T00:01:38;19.70;99.90
68387;DHT22;55338;43.062;25.624;2022-09-01T00:04:09;19.60;99.90
68387;DHT22;55338;43.062;25.624;2022-09-01T00:06:36;19.60;99.90
68387;DHT22;55338;43.062;25.624;2022-09-01T00:09:07;19.70;99.90
68387;DHT22;55338;43.062;25.624;2022-09-01T00:11:33;19.60;99.90
68387;DHT22;55338;43.062;25.624;2022-09-01T00:14:01;19.60;99.90
68387;DHT22;55338;43.062;25.624;2022-09-01T00:16:28;19.60;99.90
68387;DHT22;55338;43.062;25.624;2022-09-01T00:18:55;19.60;99.90
68387;DHT22;55338;43.062;25.624;2022-09-01T00:21:25;19.60;99.90
68387;DHT22;55338;43.062;25.624;2022-09-01T00:23:51;19.70;99.90
68387;DHT22;55338;43.062;25.624;2022-09-01T00:26:17;19.60;99.90
68387;DHT22;55338;43.062;25.624;2022-09-01T00:28:43;19.60;99.90
68387;DHT22;55338;43.062;25.624;2022-09-01T00:31:09;19.60;99.90
68387;DHT22;55338;43.062;25.624;2022-09-01T00:33:41;19.60;99.90
68387;DHT22;55338;43.062;25.624;2022-09-01T00:36:07;19.50;99.90
68387;DHT22;55338;43.062;25.624;2022-09-01T00:38:34;19.50;99.90
68387;DHT22;55338;43.062;25.624;2022-09-01T00:41:00;19.50;99.90
68387;DHT22;55338;43.062;25.624;2022-09-01T00:43:48;19.50;99.90
68387;DHT22;55338;43.062;25.624;2022-09-01T00:46:26;19.40;99.90
68387;DHT22;55338;43.062;25.624;2022-09-01T00:51:40;19.40;99.90
68387;DHT22;55338;43.062;25.624;2022-09-01T00:54:11;19.40;99.90
68387;DHT22;55338;43.062;25.624;2022-09-01T00:56:39;19.30;99.90
68387;DHT22;55338;43.062;25.624;2022-09-01T00:59:07;19.30;99.90
68387;DHT22;55338;43.062;25.624;2022-09-01T01:01:34;19.30;99.90
68387;DHT22;55338;43.062;25.624;2022-09-01T01:04:03;19.30;99.90
68387;DHT22;55338;43.062;25.624;2022-09-01T01:06:29;19.30;99.90
68387;DHT22;55338;43.062;25.624;2022-09-01T01:08:58;19.30;99.90
68387;DHT22;55338;43.062;25.624;2022-09-01T01:11:30;19.30;99.90
68387;DHT22;55338;43.062;25.624;2022-09-01T01:14:08;19.20;99.90
68387;DHT22;55338;43.062;25.624;2022-09-01T01:16:38;19.20;99.90
68387;DHT22;55338;43.062;25.624;2022-09-01T01:25:54;19.20;99.90
68387;DHT22;55338;43.062;25.624;2022-09-01T01:28:23;19.20;99.90
68387;DHT22;55338;43.062;25.624;2022-09-01T01:31:04;19.20;99.90
68387;DHT22;55338;43.062;25.624;2022-09-01T01:33:50;19.20;99.90
68387;DHT22;55338;43.062;25.624;2022-09-01T01:36:20;19.20;99.90
68387;DHT22;55338;43.062;25.624;2022-09-01T01:38:56;19.10;99.90
68387;DHT22;55338;43.062;25.624;2022-09-01T01:41:29;19.10;99.90
68387;DHT22;55338;43.062;25.624;2022-09-01T01:43:58;19.10;99.90
68387;DHT22;55338;43.062;25.624;2022-09-01T01:46:25;19.10;99.90
68387;DHT22;55338;43.062;25.624;2022-09-01T01:48:51;19.10;99.90
68387;DHT22;55338;43.062;25.624;2022-09-01T01:51:19;19.00;99.90
68387;DHT22;55338;43.062;25.624;2022-09-01T01:53:46;19.00;99.90
68387;DHT22;55338;43.062;25.624;2022-09-01T01:56:18;19.00;99.90
68387;DHT22;55338;43.062;25.624;2022-09-01T01:58:45;19.00;99.90
68387;DHT22;55338;43.062;25.624;2022-09-01T02:01:11;19.00;99.90
68387;DHT22;55338;43.062;25.624;2022-09-01T02:03:37;18.90;99.90
68387;DHT22;55338;43.062;25.624;2022-09-01T02:06:06;18.90;99.90
68387;DHT22;55338;43.062;25.624;2022-09-01T02:08:36;18.90;99.90
68387;DHT22;55338;43.062;25.624;2022-09-01T02:11:03;18.90;99.90
68387;DHT22;55338;43.062;25.624;2022-09-01T02:13:30;18.90;99.90
68387;DHT22;55338;43.062;25.624;2022-09-01T02:16:00;18.80;99.90
68387;DHT22;55338;43.062;25.624;2022-09-01T02:18:31;18.80;99.90
68387;DHT22;55338;43.062;25.624;2022-09-01T02:21:00;18.80;99.90
68387;DHT22;55338;43.062;25.624;2022-09-01T02:23:26;18.80;99.90
68387;DHT22;55338;43.062;25.624;2022-09-01T02:25:55;18.80;99.90
68387;DHT22;55338;43.062;25.624;2022-09-01T02:28:22;18.80;99.90
68387;DHT22;55338;43.062;25.624;2022-09-01T02:30:51;18.70;99.90
68387;DHT22;55338;43.062;25.624;2022-09-01T02:33:21;18.70;99.90
68387;DHT22;55338;43.062;25.624;2022-09-01T02:35:55;18.70;99.90
68387;DHT22;55338;43.062;25.624;2022-09-01T02:38:22;18.70;99.90
68387;DHT22;55338;43.062;25.624;2022-09-01T02:40:52;18.70;99.90
68387;DHT22;55338;43.062;25.624;2022-09-01T02:43:18;18.70;99.90
68387;DHT22;55338;43.062;25.624;2022-09-01T02:45:51;18.70;99.90
68387;DHT22;55338;43.062;25.624;2022-09-01T02:48:28;18.70;99.90
68387;DHT22;55338;43.062;25.624;2022-09-01T02:51:01;18.70;99.90
68387;DHT22;55338;43.062;25.624;2022-09-01T02:53:28;18.70;99.90
68387;DHT22;55338;43.062;25.624;2022-09-01T02:55:55;18.70;99.90
68387;DHT22;55338;43.062;25.624;2022-09-01T02:58:27;18.60;99.90
68387;DHT22;55338;43.062;25.624;2022-09-01T03:00:57;18.60;99.90
68387;DHT22;55338;43.062;25.624;2022-09-01T03:03:23;18.60;99.90
68387;DHT22;55338;43.062;25.624;2022-09-01T03:05:52;18.60;99.90
68387;DHT22;55338;43.062;25.624;2022-09-01T03:08:23;18.60;99.90
68387;DHT22;55338;43.062;25.624;2022-09-01T03:10:50;18.60;99.90
68387;DHT22;55338;43.062;25.624;2022-09-01T03:13:21;18.60;99.90
68387;DHT22;55338;43.062;25.624;2022-09-01T03:15:49;18.50;99.90
68387;DHT22;55338;43.062;25.624;2022-09-01T03:18:16;18.50;99.90
68387;DHT22;55338;43.062;25.624;2022-09-01T03:20:44;18.50;99.90
68387;DHT22;55338;43.062;25.624;2022-09-01T03:23:13;18.50;99.90
68387;DHT22;55338;43.062;25.624;2022-09-01T03:25:45;18.50;99.90
68387;DHT22;55338;43.062;25.624;2022-09-01T03:28:14;18.40;99.90
68387;DHT22;55338;43.062;25.624;2022-09-01T03:30:51;18.40;99.90
68387;DHT22;55338;43.062;25.624;2022-09-01T03:33:18;18.40;99.90
68387;DHT22;55338;43.062;25.624;2022-09-01T03:35:45;18.40;99.90
68387;DHT22;55338;43.062;25.624;2022-09-01T03:38:11;18.40;99.90
68387;DHT22;55338;43.062;25.624;2022-09-01T03:40:39;18.40;99.90
68387;DHT22;55338;43.062;25.624;2022-09-01T03:43:07;18.40;99.90
68387;DHT22;55338;43.062;25.624;2022-09-01T03:45:39;18.30;99.90
68387;DHT22;55338;43.062;25.624;2022-09-01T03:48:06;18.30;99.90
68387;DHT22;55338;43.062;25.624;2022-09-01T03:50:39;18.40;99.90
68387;DHT22;55338;43.062;25.624;2022-09-01T03:53:17;18.30;99.90
68387;DHT22;55338;43.062;25.624;2022-09-01T03:55:45;18.30;99.90
68387;DHT22;55338;43.062;25.624;2022-09-01T03:58:13;18.40;99.90
68387;DHT22;55338;43.062;25.624;2022-09-01T04:00:52;18.40;99.90
68387;DHT22;55338;43.062;25.624;2022-09-01T04:03:24;18.50;99.90
68387;DHT22;55338;43.062;25.624;2022-09-01T04:05:51;18.60;99.90
68387;DHT22;55338;43.062;25.624;2022-09-01T04:08:19;18.70;99.90
68387;DHT22;55338;43.062;25.624;2022-09-01T04:10:50;18.70;99.90
68387;DHT22;55338;43.062;25.624;2022-09-01T04:13:23;18.80;99.90
68387;DHT22;55338;43.062;25.624;2022-09-01T04:15:50;18.80;99.90
68387;DHT22;55338;43.062;25.624;2022-09-01T04:18:17;18.90;99.90
68387;DHT22;55338;43.062;25.624;2022-09-01T04:20:49;19.00;99.90
68387;DHT22;55338;43.062;25.624;2022-09-01T04:23:24;19.00;99.90
68387;DHT22;55338;43.062;25.624;2022-09-01T04:26:07;19.00;99.90
68387;DHT22;55338;43.062;25.624;2022-09-01T04:28:43;19.20;99.90
68387;DHT22;55338;43.062;25.624;2022-09-01T04:31:20;19.30;99.90
68387;DHT22;55338;43.062;25.624;2022-09-01T04:33:50;19.30;99.90
68387;DHT22;55338;43.062;25.624;2022-09-01T04:36:24;19.40;99.90
68387;DHT22;55338;43.062;25.624;2022-09-01T04:38:54;19.40;99.90
68387;DHT22;55338;43.062;25.624;2022-09-01T04:41:28;19.50;99.90
68387;DHT22;55338;43.062;25.624;2022-09-01T04:43:57;19.60;99.90
68387;DHT22;55338;43.062;25.624;2022-09-01T04:46:25;19.70;99.90
68387;DHT22;55338;43.062;25.624;2022-09-01T04:48:56;19.80;99.90
68387;DHT22;55338;43.062;25.624;2022-09-01T04:51:22;19.90;99.90
68387;DHT22;55338;43.062;25.624;2022-09-01T04:53:53;20.10;99.90
68387;DHT22;55338;43.062;25.624;2022-09-01T04:56:20;20.20;99.90
68387;DHT22;55338;43.062;25.624;2022-09-01T04:58:49;20.30;99.90
68387;DHT22;55338;43.062;25.624;2022-09-01T05:01:18;20.30;99.90
68387;DHT22;55338;43.062;25.624;2022-09-01T05:03:44;20.30;99.90
68387;DHT22;55338;43.062;25.624;2022-09-01T05:06:15;20.40;99.90
68387;DHT22;55338;43.062;25.624;2022-09-01T05:08:42;20.60;99.90
68387;DHT22;55338;43.062;25.624;2022-09-01T05:11:11;20.80;98.40
68387;DHT22;55338;43.062;25.624;2022-09-01T05:13:37;20.90;98.00
68387;DHT22;55338;43.062;25.624;2022-09-01T05:16:07;21.00;97.90
68387;DHT22;55338;43.062;25.624;2022-09-01T05:18:38;20.90;97.80
68387;DHT22;55338;43.062;25.624;2022-09-01T05:21:07;21.00;98.00
68387;DHT22;55338;43.062;25.624;2022-09-01T05:23:39;21.10;97.60
68387;DHT22;55338;43.062;25.624;2022-09-01T05:26:11;21.10;97.80
68387;DHT22;55338;43.062;25.624;2022-09-01T05:28:42;21.10;97.20
68387;DHT22;55338;43.062;25.624;2022-09-01T05:31:08;21.20;97.10
68387;DHT22;55338;43.062;25.624;2022-09-01T05:33:35;21.20;96.70
68387;DHT22;55338;43.062;25.624;2022-09-01T05:36:02;21.30;96.50
68387;DHT22;55338;43.062;25.624;2022-09-01T05:38:33;21.40;95.80
68387;DHT22;55338;43.062;25.624;2022-09-01T05:41:02;21.40;96.00
68387;DHT22;55338;43.062;25.624;2022-09-01T05:43:29;21.60;96.70
68387;DHT22;55338;43.062;25.624;2022-09-01T05:45:57;21.90;95.40
68387;DHT22;55338;43.062;25.624;2022-09-01T05:48:23;22.00;94.70
68387;DHT22;55338;43.062;25.624;2022-09-01T05:50:50;22.20;93.70
68387;DHT22;55338;43.062;25.624;2022-09-01T05:53:21;22.30;93.60
68387;DHT22;55338;43.062;25.624;2022-09-01T05:55:51;22.60;92.70
68387;DHT22;55338;43.062;25.624;2022-09-01T05:58:22;22.80;91.00
68387;DHT22;55338;43.062;25.624;2022-09-01T06:00:52;23.00;90.30
68387;DHT22;55338;43.062;25.624;2022-09-01T06:03:19;23.30;90.20
68387;DHT22;55338;43.062;25.624;2022-09-01T06:05:46;23.50;89.60
68387;DHT22;55338;43.062;25.624;2022-09-01T06:08:19;23.60;88.90
68387;DHT22;55338;43.062;25.624;2022-09-01T06:10:46;23.90;87.10
68387;DHT22;55338;43.062;25.624;2022-09-01T06:13:14;24.10;87.30
68387;DHT22;55338;43.062;25.624;2022-09-01T06:15:42;24.50;86.90
68387;DHT22;55338;43.062;25.624;2022-09-01T06:18:12;24.80;84.20
68387;DHT22;55338;43.062;25.624;2022-09-01T06:20:42;25.00;84.00
68387;DHT22;55338;43.062;25.624;2022-09-01T06:23:09;25.20;82.20
68387;DHT22;55338;43.062;25.624;2022-09-01T06:25:39;25.40;81.00
68387;DHT22;55338;43.062;25.624;2022-09-01T06:28:17;25.50;81.60
68387;DHT22;55338;43.062;25.624;2022-09-01T06:30:48;25.70;79.40
68387;DHT22;55338;43.062;25.624;2022-09-01T06:33:15;25.90;77.70
68387;DHT22;55338;43.062;25.624;2022-09-01T06:35:43;26.10;76.90
68387;DHT22;55338;43.062;25.624;2022-09-01T06:38:12;26.30;77.50
68387;DHT22;55338;43.062;25.624;2022-09-01T06:40:39;26.70;77.80
68387;DHT22;55338;43.062;25.624;2022-09-01T06:43:08;27.20;76.40
68387;DHT22;55338;43.062;25.624;2022-09-01T06:45:40;27.50;74.80
68387;DHT22;55338;43.062;25.624;2022-09-01T06:48:07;27.60;72.30
68387;DHT22;55338;43.062;25.624;2022-09-01T06:50:33;27.80;72.30
68387;DHT22;55338;43.062;25.624;2022-09-01T06:52:59;28.10;71.70
68387;DHT22;55338;43.062;25.624;2022-09-01T06:55:39;28.30;69.60
68387;DHT22;55338;43.062;25.624;2022-09-01T06:58:05;28.60;67.70
68387;DHT22;55338;43.062;25.624;2022-09-01T07:00:33;28.60;67.60
68387;DHT22;55338;43.062;25.624;2022-09-01T07:03:02;28.80;66.50
68387;DHT22;55338;43.062;25.624;2022-09-01T07:05:32;29.10;66.70
68387;DHT22;55338;43.062;25.624;2022-09-01T07:07:58;29.20;64.80
68387;DHT22;55338;43.062;25.624;2022-09-01T07:10:25;28.90;65.00
68387;DHT22;55338;43.062;25.624;2022-09-01T07:12:54;28.90;65.40
68387;DHT22;55338;43.062;25.624;2022-09-01T07:15:21;28.80;65.60
68387;DHT22;55338;43.062;25.624;2022-09-01T07:17:53;28.70;65.70
68387;DHT22;55338;43.062;25.624;2022-09-01T07:20:23;29.10;64.90
68387;DHT22;55338;43.062;25.624;2022-09-01T07:22:51;29.30;64.00
68387;DHT22;55338;43.062;25.624;2022-09-01T07:25:18;28.90;65.70
68387;DHT22;55338;43.062;25.624;2022-09-01T07:27:45;29.30;64.90
68387;DHT22;55338;43.062;25.624;2022-09-01T07:30:15;29.70;62.70
68387;DHT22;55338;43.062;25.624;2022-09-01T07:32:41;29.80;63.10
68387;DHT22;55338;43.062;25.624;2022-09-01T07:35:16;29.90;62.50
68387;DHT22;55338;43.062;25.624;2022-09-01T07:37:43;29.80;62.70
68387;DHT22;55338;43.062;25.624;2022-09-01T07:40:12;29.90;61.90
68387;DHT22;55338;43.062;25.624;2022-09-01T07:42:42;30.40;61.40
68387;DHT22;55338;43.062;25.624;2022-09-01T07:45:09;31.00;59.70
68387;DHT22;55338;43.062;25.624;2022-09-01T07:47:36;31.40;57.80
68387;DHT22;55338;43.062;25.624;2022-09-01T07:50:06;31.70;56.20
68387;DHT22;55338;43.062;25.624;2022-09-01T07:52:38;31.90;55.20
68387;DHT22;55338;43.062;25.624;2022-09-01T07:55:09;32.00;54.70
68387;DHT22;55338;43.062;25.624;2022-09-01T07:57:40;32.20;54.20
68387;DHT22;55338;43.062;25.624;2022-09-01T08:00:09;32.50;54.00
68387;DHT22;55338;43.062;25.624;2022-09-01T08:02:40;32.90;52.00
68387;DHT22;55338;43.062;25.624;2022-09-01T08:05:07;33.30;50.40
68387;DHT22;55338;43.062;25.624;2022-09-01T08:07:37;33.60;50.20
68387;DHT22;55338;43.062;25.624;2022-09-01T08:10:05;34.00;49.70
68387;DHT22;55338;43.062;25.624;2022-09-01T08:12:33;34.10;49.40
68387;DHT22;55338;43.062;25.624;2022-09-01T08:15:01;34.60;47.40
68387;DHT22;55338;43.062;25.624;2022-09-01T08:17:27;34.40;47.20
68387;DHT22;55338;43.062;25.624;2022-09-01T08:19:53;34.40;47.50
68387;DHT22;55338;43.062;25.624;2022-09-01T08:22:19;34.50;46.50
68387;DHT22;55338;43.062;25.624;2022-09-01T08:24:51;34.50;46.10
68387;DHT22;55338;43.062;25.624;2022-09-01T08:27:17;34.70;46.40
68387;DHT22;55338;43.062;25.624;2022-09-01T08:29:43;34.80;46.10
68387;DHT22;55338;43.062;25.624;2022-09-01T08:32:09;35.10;45.90
68387;DHT22;55338;43.062;25.624;2022-09-01T08:34:35;35.40;44.30
68387;DHT22;55338;43.062;25.624;2022-09-01T08:37:02;35.70;44.50
68387;DHT22;55338;43.062;25.624;2022-09-01T08:39:28;35.90;43.10
68387;DHT22;55338;43.062;25.624;2022-09-01T08:42:16;35.70;43.30
68387;DHT22;55338;43.062;25.624;2022-09-01T08:44:57;35.80;44.40
68387;DHT22;55338;43.062;25.624;2022-09-01T08:47:25;36.00;42.80
68387;DHT22;55338;43.062;25.624;2022-09-01T08:49:51;36.40;41.60
68387;DHT22;55338;43.062;25.624;2022-09-01T08:52:33;36.70;40.20
68387;DHT22;55338;43.062;25.624;2022-09-01T08:57:46;36.70;39.40
68387;DHT22;55338;43.062;25.624;2022-09-01T09:00:17;36.80;39.70
68387;DHT22;55338;43.062;25.624;2022-09-01T09:11:50;37.40;35.90
68387;DHT22;55338;43.062;25.624;2022-09-01T09:14:41;37.50;36.10
68387;DHT22;55338;43.062;25.624;2022-09-01T09:17:10;37.70;34.60
68387;DHT22;55338;43.062;25.624;2022-09-01T09:19:43;38.10;34.30
68387;DHT22;55338;43.062;25.624;2022-09-01T09:22:12;38.20;33.20
68387;DHT22;55338;43.062;25.624;2022-09-01T09:27:33;38.10;33.60
68387;DHT22;55338;43.062;25.624;2022-09-01T09:30:02;38.10;33.50
68387;DHT22;55338;43.062;25.624;2022-09-01T09:43:31;38.10;32.90
68387;DHT22;55338;43.062;25.624;2022-09-01T09:46:20;38.30;33.50
68387;DHT22;55338;43.062;25.624;2022-09-01T09:48:47;38.60;31.60
68387;DHT22;55338;43.062;25.624;2022-09-01T09:51:20;38.50;31.50
68387;DHT22;55338;43.062;25.624;2022-09-01T09:53:47;38.30;32.50
68387;DHT22;55338;43.062;25.624;2022-09-01T09:56:19;38.40;32.60
68387;DHT22;55338;43.062;25.624;2022-09-01T09:58:49;38.60;31.50
68387;DHT22;55338;43.062;25.624;2022-09-01T10:03:56;39.10;30.00
68387;DHT22;55338;43.062;25.624;2022-09-01T10:06:36;39.10;30.30
68387;DHT22;55338;43.062;25.624;2022-09-01T10:09:13;39.20;30.60
68387;DHT22;55338;43.062;25.624;2022-09-01T10:11:42;39.50;30.80
68387;DHT22;55338;43.062;25.624;2022-09-01T10:14:21;39.60;29.20
68387;DHT22;55338;43.062;25.624;2022-09-01T10:16:53;39.50;28.20
68387;DHT22;55338;43.062;25.624;2022-09-01T10:19:20;39.00;29.40
68387;DHT22;55338;43.062;25.624;2022-09-01T10:21:47;38.50;30.50
68387;DHT22;55338;43.062;25.624;2022-09-01T10:26:53;38.30;30.00
68387;DHT22;55338;43.062;25.624;2022-09-01T10:29:36;38.10;31.10
68387;DHT22;55338;43.062;25.624;2022-09-01T10:32:07;38.10;32.50
68387;DHT22;55338;43.062;25.624;2022-09-01T10:34:36;38.70;30.30
68387;DHT22;55338;43.062;25.624;2022-09-01T10:37:05;38.70;29.00
68387;DHT22;55338;43.062;25.624;2022-09-01T10:39:31;38.40;30.90
68387;DHT22;55338;43.062;25.624;2022-09-01T10:41:58;38.90;30.40
68387;DHT22;55338;43.062;25.624;2022-09-01T10:44:55;39.20;29.20
68387;DHT22;55338;43.062;25.624;2022-09-01T10:47:33;39.40;28.70
68387;DHT22;55338;43.062;25.624;2022-09-01T10:50:27;38.90;28.40
68387;DHT22;55338;43.062;25.624;2022-09-01T10:53:00;39.00;30.00
68387;DHT22;55338;43.062;25.624;2022-09-01T10:55:36;39.40;28.60
68387;DHT22;55338;43.062;25.624;2022-09-01T10:58:20;40.00;27.30
68387;DHT22;55338;43.062;25.624;2022-09-01T11:00:51;39.90;27.20
68387;DHT22;55338;43.062;25.624;2022-09-01T11:05:59;39.60;27.90
68387;DHT22;55338;43.062;25.624;2022-09-01T11:16:40;40.30;25.50
68387;DHT22;55338;43.062;25.624;2022-09-01T11:22:25;40.50;25.20
68387;DHT22;55338;43.062;25.624;2022-09-01T11:25:35;39.90;25.90
68387;DHT22;55338;43.062;25.624;2022-09-01T11:28:41;39.40;27.30
68387;DHT22;55338;43.062;25.624;2022-09-01T11:33:47;40.20;26.00
68387;DHT22;55338;43.062;25.624;2022-09-01T11:42:06;39.60;25.30
68387;DHT22;55338;43.062;25.624;2022-09-01T11:47:20;40.20;24.00
68387;DHT22;55338;43.062;25.624;2022-09-01T11:49:51;40.00;24.00
68387;DHT22;55338;43.062;25.624;2022-09-01T11:52:20;40.30;23.70
68387;DHT22;55338;43.062;25.624;2022-09-01T11:54:47;40.40;23.40
68387;DHT22;55338;43.062;25.624;2022-09-01T11:57:37;40.50;23.00
68387;DHT22;55338;43.062;25.624;2022-09-01T12:00:07;40.50;22.50
68387;DHT22;55338;43.062;25.624;2022-09-01T12:02:34;40.30;22.80
68387;DHT22;55338;43.062;25.624;2022-09-01T12:05:03;40.30;23.10
68387;DHT22;55338;43.062;25.624;2022-09-01T12:07:48;40.50;22.20
68387;DHT22;55338;43.062;25.624;2022-09-01T12:10:29;40.30;22.20
68387;DHT22;55338;43.062;25.624;2022-09-01T12:13:08;40.10;23.30
68387;DHT22;55338;43.062;25.624;2022-09-01T12:15:37;40.30;22.90
68387;DHT22;55338;43.062;25.624;2022-09-01T12:18:14;40.50;22.20
68387;DHT22;55338;43.062;25.624;2022-09-01T12:20:44;40.80;20.80
68387;DHT22;55338;43.062;25.624;2022-09-01T12:23:32;40.70;20.90
68387;DHT22;55338;43.062;25.624;2022-09-01T12:26:04;40.60;21.40
68387;DHT22;55338;43.062;25.624;2022-09-01T12:28:32;39.70;22.80
68387;DHT22;55338;43.062;25.624;2022-09-01T12:31:04;39.60;22.70
68387;DHT22;55338;43.062;25.624;2022-09-01T12:33:31;40.00;22.40
68387;DHT22;55338;43.062;25.624;2022-09-01T12:38:39;39.10;23.50
68387;DHT22;55338;43.062;25.624;2022-09-01T12:41:22;39.10;24.20
68387;DHT22;55338;43.062;25.624;2022-09-01T12:43:48;39.20;24.30
68387;DHT22;55338;43.062;25.624;2022-09-01T12:46:41;39.50;23.50
68387;DHT22;55338;43.062;25.624;2022-09-01T12:49:18;39.00;24.20
68387;DHT22;55338;43.062;25.624;2022-09-01T12:51:45;38.40;25.30
68387;DHT22;55338;43.062;25.624;2022-09-01T12:54:23;38.00;25.70
68387;DHT22;55338;43.062;25.624;2022-09-01T12:56:50;37.60;26.70
68387;DHT22;55338;43.062;25.624;2022-09-01T12:59:24;37.30;26.50
68387;DHT22;55338;43.062;25.624;2022-09-01T13:01:50;36.90;27.60
68387;DHT22;55338;43.062;25.624;2022-09-01T13:06:55;36.40;28.60
68387;DHT22;55338;43.062;25.624;2022-09-01T13:09:21;35.70;29.10
68387;DHT22;55338;43.062;25.624;2022-09-01T13:11:47;35.40;30.50
68387;DHT22;55338;43.062;25.624;2022-09-01T13:14:15;35.30;31.30
68387;DHT22;55338;43.062;25.624;2022-09-01T13:16:41;35.00;31.60
68387;DHT22;55338;43.062;25.624;2022-09-01T13:19:07;34.70;33.20
68387;DHT22;55338;43.062;25.624;2022-09-01T13:21:33;34.40;33.10
68387;DHT22;55338;43.062;25.624;2022-09-01T13:24:00;33.70;35.50
68387;DHT22;55338;43.062;25.624;2022-09-01T13:26:27;32.80;40.50
68387;DHT22;55338;43.062;25.624;2022-09-01T13:28:56;31.90;43.40
68387;DHT22;55338;43.062;25.624;2022-09-01T13:31:22;31.00;47.20
68387;DHT22;55338;43.062;25.624;2022-09-01T13:33:48;30.50;50.20
68387;DHT22;55338;43.062;25.624;2022-09-01T13:36:14;29.60;56.10
68387;DHT22;55338;43.062;25.624;2022-09-01T13:38:40;28.30;62.90
68387;DHT22;55338;43.062;25.624;2022-09-01T13:41:06;26.80;70.10
68387;DHT22;55338;43.062;25.624;2022-09-01T13:43:35;25.40;79.50
68387;DHT22;55338;43.062;25.624;2022-09-01T13:46:01;23.90;88.40
68387;DHT22;55338;43.062;25.624;2022-09-01T13:48:27;23.00;92.50
68387;DHT22;55338;43.062;25.624;2022-09-01T13:50:54;22.40;99.90
68387;DHT22;55338;43.062;25.624;2022-09-01T13:53:20;22.20;99.90
68387;DHT22;55338;43.062;25.624;2022-09-01T13:55:47;22.00;99.90
68387;DHT22;55338;43.062;25.624;2022-09-01T13:58:13;21.90;99.90
68387;DHT22;55338;43.062;25.624;2022-09-01T14:00:43;22.00;99.90
68387;DHT22;55338;43.062;25.624;2022-09-01T14:03:15;22.00;99.90
68387;DHT22;55338;43.062;25.624;2022-09-01T14:05:46;22.10;99.90
68387;DHT22;55338;43.062;25.624;2022-09-01T14:08:15;22.20;99.90
68387;DHT22;55338;43.062;25.624;2022-09-01T14:10:44;22.20;99.90
68387;DHT22;55338;43.062;25.624;2022-09-01T14:13:11;22.30;99.90
68387;DHT22;55338;43.062;25.624;2022-09-01T14:15:37;22.50;99.90
68387;DHT22;55338;43.062;25.624;2022-09-01T14:18:04;22.70;99.90
68387;DHT22;55338;43.062;25.624;2022-09-01T14:20:33;22.80;99.90
68387;DHT22;55338;43.062;25.624;2022-09-01T14:23:01;22.80;99.90
68387;DHT22;55338;43.062;25.624;2022-09-01T14:25:28;22.90;99.90
68387;DHT22;55338;43.062;25.624;2022-09-01T14:27:54;23.00;99.90
68387;DHT22;55338;43.062;25.624;2022-09-01T14:30:26;23.10;99.90
68387;DHT22;55338;43.062;25.624;2022-09-01T14:32:52;23.10;99.90
68387;DHT22;55338;43.062;25.624;2022-09-01T14:35:19;23.00;99.90
68387;DHT22;55338;43.062;25.624;2022-09-01T14:37:45;23.00;99.90
68387;DHT22;55338;43.062;25.624;2022-09-01T14:40:15;23.00;99.90
68387;DHT22;55338;43.062;25.624;2022-09-01T14:42:42;23.00;99.90
68387;DHT22;55338;43.062;25.624;2022-09-01T14:45:26;23.10;99.90
68387;DHT22;55338;43.062;25.624;2022-09-01T14:47:58;23.20;99.90
68387;DHT22;55338;43.062;25.624;2022-09-01T14:50:25;23.30;99.90
68387;DHT22;55338;43.062;25.624;2022-09-01T14:52:54;23.30;99.90
68387;DHT22;55338;43.062;25.624;2022-09-01T14:55:25;23.30;99.90
68387;DHT22;55338;43.062;25.624;2022-09-01T14:57:52;23.30;99.90
68387;DHT22;55338;43.062;25.624;2022-09-01T15:00:19;23.20;99.90
68387;DHT22;55338;43.062;25.624;2022-09-01T15:02:46;23.20;99.90
68387;DHT22;55338;43.062;25.624;2022-09-01T15:05:12;23.30;99.90
68387;DHT22;55338;43.062;25.624;2022-09-01T15:07:39;23.30;99.90
68387;DHT22;55338;43.062;25.624;2022-09-01T15:10:07;23.20;99.90
68387;DHT22;55338;43.062;25.624;2022-09-01T15:12:34;23.10;99.90
68387;DHT22;55338;43.062;25.624;2022-09-01T15:15:00;22.90;99.90
68387;DHT22;55338;43.062;25.624;2022-09-01T15:17:27;22.90;99.90
68387;DHT22;55338;43.062;25.624;2022-09-01T15:19:53;22.90;99.90
68387;DHT22;55338;43.062;25.624;2022-09-01T15:22:19;22.90;99.90
68387;DHT22;55338;43.062;25.624;2022-09-01T15:24:45;22.90;99.90
68387;DHT22;55338;43.062;25.624;2022-09-01T15:27:11;22.90;99.90
68387;DHT22;55338;43.062;25.624;2022-09-01T15:29:38;22.90;99.90
68387;DHT22;55338;43.062;25.624;2022-09-01T15:32:11;22.90;99.90
68387;DHT22;55338;43.062;25.624;2022-09-01T15:34:37;23.00;99.90
68387;DHT22;55338;43.062;25.624;2022-09-01T15:37:03;23.10;99.90
68387;DHT22;55338;43.062;25.624;2022-09-01T15:39:29;23.10;99.90
68387;DHT22;55338;43.062;25.624;2022-09-01T15:41:55;23.10;99.90
68387;DHT22;55338;43.062;25.624;2022-09-01T15:44:21;23.10;99.90
68387;DHT22;55338;43.062;25.624;2022-09-01T15:46:47;23.00;99.90
68387;DHT22;55338;43.062;25.624;2022-09-01T15:49:13;23.00;99.90
68387;DHT22;55338;43.062;25.624;2022-09-01T15:51:41;22.90;99.90
68387;DHT22;55338;43.062;25.624;2022-09-01T15:54:19;23.00;99.90
68387;DHT22;55338;43.062;25.624;2022-09-01T15:56:45;22.90;99.90
68387;DHT22;55338;43.062;25.624;2022-09-01T15:59:12;23.00;99.90
68387;DHT22;55338;43.062;25.624;2022-09-01T16:01:41;23.00;99.90
68387;DHT22;55338;43.062;25.624;2022-09-01T16:04:09;23.00;99.90
68387;DHT22;55338;43.062;25.624;2022-09-01T16:06:39;23.00;99.90
68387;DHT22;55338;43.062;25.624;2022-09-01T16:09:07;23.00;99.90
68387;DHT22;55338;43.062;25.624;2022-09-01T16:11:33;22.90;99.90
68387;DHT22;55338;43.062;25.624;2022-09-01T16:14:01;22.90;99.90
68387;DHT22;55338;43.062;25.624;2022-09-01T16:17:04;22.90;99.90
68387;DHT22;55338;43.062;25.624;2022-09-01T16:19:58;22.90;99.90
68387;DHT22;55338;43.062;25.624;2022-09-01T16:22:43;22.90;99.90
68387;DHT22;55338;43.062;25.624;2022-09-01T16:25:14;22.90;99.90
68387;DHT22;55338;43.062;25.624;2022-09-01T16:27:43;22.90;99.90
68387;DHT22;55338;43.062;25.624;2022-09-01T16:30:17;22.90;99.90
68387;DHT22;55338;43.062;25.624;2022-09-01T16:32:46;22.80;99.90
68387;DHT22;55338;43.062;25.624;2022-09-01T16:35:12;22.90;99.90
68387;DHT22;55338;43.062;25.624;2022-09-01T16:43:39;22.80;99.90
68387;DHT22;55338;43.062;25.624;2022-09-01T16:46:30;22.80;99.90
68387;DHT22;55338;43.062;25.624;2022-09-01T16:49:14;22.70;99.90
68387;DHT22;55338;43.062;25.624;2022-09-01T16:52:08;22.70;99.90